Time,TemperatureF,DewpointF,PressureIn,WindDirection,WindDirectionDegrees,WindSpeedMPH,WindSpeedGustMPH,Humidity,HourlyPrecipIn,Conditions,Clouds,dailyrainin,SoftwareType,DateUTC
2013-03-29 00:00:00,80.4,58.4,30.03,North,0,0.0,0.0,47,0.00,,SCT120,0.00,VWS V14.01,2013-03-29 04:00:00,
2013-03-29 00:05:00,79.7,60.5,30.03,North,0,0.0,0.0,52,0.00,,SCT120,0.00,VWS V14.01,2013-03-29 04:05:00,
2013-03-29 00:10:00,79.2,62.1,30.03,North,0,0.0,0.0,56,0.00,,SCT120,0.00,VWS V14.01,2013-03-29 04:10:00,
2013-03-29 00:15:00,79.2,64.1,30.03,North,0,0.0,0.0,60,0.00,,SCT120,0.00,VWS V14.01,2013-03-29 04:15:00,
2013-03-29 00:20:00,79.2,65.5,30.03,North,0,0.0,0.0,63,0.00,,SCT120,0.00,VWS V14.01,2013-03-29 04:20:00,
2013-03-29 00:25:00,79.2,65.5,30.03,North,0,0.0,0.0,63,0.00,,SCT120,0.00,VWS V14.01,2013-03-29 04:25:00,
2013-03-29 00:30:00,79.0,65.3,30.03,North,0,0.0,0.0,63,0.00,,SCT120,0.00,VWS V14.01,2013-03-29 04:30:00,
2013-03-29 00:35:00,79.0,65.3,30.03,North,0,0.0,0.0,63,0.00,,SCT120,0.00,VWS V14.01,2013-03-29 04:35:00,
2013-03-29 00:40:00,79.2,65.5,30.03,North,0,0.0,0.0,63,0.00,,SCT120,0.00,VWS V14.01,2013-03-29 04:40:00,
2013-03-29 00:45:00,79.2,65.9,30.03,North,0,0.0,0.0,64,0.00,,SCT120,0.00,VWS V14.01,2013-03-29 04:45:00,
2013-03-29 00:50:00,79.3,66.6,30.03,North,0,0.0,0.0,65,0.00,,SCT120,0.00,VWS V14.01,2013-03-29 04:50:00,
2013-03-29 00:55:00,79.3,67.0,30.03,North,0,0.0,0.0,66,0.00,,SCT120,0.00,VWS V14.01,2013-03-29 04:55:00,
2013-03-29 01:00:00,79.2,66.8,30.03,North,0,0.0,0.0,66,0.00,,SCT120,0.00,VWS V14.01,2013-03-29 05:00:00,
2013-03-29 01:05:00,79.0,66.7,30.03,North,0,0.0,0.0,66,0.00,,SCT120,0.00,VWS V14.01,2013-03-29 05:05:00,
2013-03-29 01:10:00,78.6,66.8,30.03,North,0,0.0,0.0,67,0.00,,SCT120,0.00,VWS V14.01,2013-03-29 05:10:00,
2013-03-29 01:15:00,78.3,66.4,30.03,North,0,0.0,0.0,67,0.00,,SCT120,0.00,VWS V14.01,2013-03-29 05:15:00,
2013-03-29 01:20:00,77.9,66.5,30.03,North,0,0.0,0.0,68,0.00,,SCT120,0.00,VWS V14.01,2013-03-29 05:20:00,
2013-03-29 01:25:00,78.1,66.7,30.00,North,0,0.0,0.0,68,0.00,,SCT120,0.00,VWS V14.01,2013-03-29 05:25:00,
2013-03-29 01:30:00,78.1,67.1,30.00,North,0,0.0,0.0,69,0.00,,SCT120,0.00,VWS V14.01,2013-03-29 05:30:00,
2013-03-29 01:35:00,78.1,67.1,30.00,North,0,0.0,0.0,69,0.00,,SCT120,0.00,VWS V14.01,2013-03-29 05:35:00,
2013-03-29 01:40:00,77.9,66.9,30.00,North,0,0.0,0.0,69,0.00,,SCT120,0.00,VWS V14.01,2013-03-29 05:40:00,
2013-03-29 01:45:00,77.7,66.3,30.00,North,0,0.0,0.0,68,0.00,,SCT120,0.00,VWS V14.01,2013-03-29 05:45:00,
2013-03-29 01:50:00,77.7,66.8,30.00,North,0,0.0,0.0,69,0.00,,SCT120,0.00,VWS V14.01,2013-03-29 05:50:00,
2013-03-29 01:55:00,77.9,67.3,30.00,North,0,0.0,0.0,70,0.00,,SCT120,0.00,VWS V14.01,2013-03-29 05:55:00,
2013-03-29 02:00:00,77.9,66.9,30.00,North,0,0.0,0.0,69,0.00,,SCT120,0.00,VWS V14.01,2013-03-29 06:00:00,
2013-03-29 02:05:00,77.9,66.9,30.00,North,0,0.0,0.0,69,0.00,,SCT120,0.00,VWS V14.01,2013-03-29 06:05:00,
2013-03-29 02:10:00,77.7,66.8,30.00,North,0,0.0,0.0,69,0.00,,SCT120,0.00,VWS V14.01,2013-03-29 06:10:00,
2013-03-29 02:15:00,77.4,66.0,30.00,North,0,0.0,0.0,68,0.00,,SCT120,0.00,VWS V14.01,2013-03-29 06:15:00,
2013-03-29 02:20:00,77.2,66.2,30.00,North,0,0.0,0.0,69,0.00,,SCT120,0.00,VWS V14.01,2013-03-29 06:20:00,
2013-03-29 02:25:00,77.2,66.2,30.00,North,0,0.0,0.0,69,0.00,,SCT120,0.00,VWS V14.01,2013-03-29 06:25:00,
2013-03-29 02:30:00,77.0,66.1,30.00,North,0,0.0,0.0,69,0.00,,SCT120,0.00,VWS V14.01,2013-03-29 06:30:00,
2013-03-29 02:35:00,77.0,66.1,30.00,North,0,0.0,0.0,69,0.00,,SCT120,0.00,VWS V14.01,2013-03-29 06:35:00,
2013-03-29 02:40:00,77.0,66.1,30.00,North,0,0.0,0.0,69,0.00,,SCT120,0.00,VWS V14.01,2013-03-29 06:40:00,
2013-03-29 02:45:00,77.0,66.1,30.00,North,0,0.0,0.0,69,0.00,,SCT120,0.00,VWS V14.01,2013-03-29 06:45:00,
2013-03-29 02:50:00,77.0,66.1,30.00,North,0,0.0,0.0,69,0.00,,SCT120,0.00,VWS V14.01,2013-03-29 06:50:00,
2013-03-29 02:55:00,76.8,65.9,30.00,North,0,0.0,0.0,69,0.00,,SCT120,0.00,VWS V14.01,2013-03-29 06:55:00,
2013-03-29 03:00:00,76.6,65.7,30.00,North,0,0.0,0.0,69,0.00,,SCT120,0.00,VWS V14.01,2013-03-29 07:00:00,
2013-03-29 03:05:00,76.3,65.4,30.00,North,0,0.0,0.0,69,0.00,,SCT120,0.00,VWS V14.01,2013-03-29 07:05:00,
2013-03-29 03:10:00,76.1,65.6,29.97,North,0,0.0,0.0,70,0.00,,SCT120,0.00,VWS V14.01,2013-03-29 07:10:00,
2013-03-29 03:15:00,76.1,65.6,29.97,North,0,0.0,0.0,70,0.00,,SCT120,0.00,VWS V14.01,2013-03-29 07:15:00,
2013-03-29 03:20:00,75.9,65.4,29.97,North,0,0.0,0.0,70,0.00,,SCT120,0.00,VWS V14.01,2013-03-29 07:20:00,
2013-03-29 03:25:00,75.6,65.1,30.00,North,0,0.0,0.0,70,0.00,,SCT120,0.00,VWS V14.01,2013-03-29 07:25:00,
2013-03-29 03:30:00,75.6,65.5,30.00,North,0,0.0,0.0,71,0.00,,SCT120,0.00,VWS V14.01,2013-03-29 07:30:00,
2013-03-29 03:35:00,75.4,65.7,30.00,North,0,0.0,0.0,72,0.00,,SCT120,0.00,VWS V14.01,2013-03-29 07:35:00,
2013-03-29 03:40:00,75.4,65.7,30.00,North,0,0.0,0.0,72,0.00,,SCT120,0.00,VWS V14.01,2013-03-29 07:40:00,
2013-03-29 03:45:00,75.2,65.6,30.00,North,0,0.0,0.0,72,0.00,,SCT120,0.00,VWS V14.01,2013-03-29 07:45:00,
2013-03-29 03:50:00,75.2,65.6,30.00,North,0,0.0,0.0,72,0.00,,SCT120,0.00,VWS V14.01,2013-03-29 07:50:00,
2013-03-29 03:55:00,75.0,65.8,30.00,North,0,0.0,0.0,73,0.00,,SCT120,0.00,VWS V14.01,2013-03-29 07:55:00,
2013-03-29 04:00:00,75.2,66.0,30.00,North,0,0.0,0.0,73,0.00,,SCT120,0.00,VWS V14.01,2013-03-29 08:00:00,
2013-03-29 04:05:00,75.2,66.0,30.00,North,0,0.0,0.0,73,0.00,,SCT120,0.00,VWS V14.01,2013-03-29 08:05:00,
2013-03-29 04:10:00,74.8,65.6,30.00,North,0,0.0,0.0,73,0.00,,SCT120,0.00,VWS V14.01,2013-03-29 08:10:00,
2013-03-29 04:15:00,74.8,65.6,30.00,North,0,0.0,0.0,73,0.00,,SCT120,0.00,VWS V14.01,2013-03-29 08:15:00,
2013-03-29 04:20:00,74.8,65.6,30.00,North,0,0.0,0.0,73,0.00,,SCT120,0.00,VWS V14.01,2013-03-29 08:20:00,
2013-03-29 04:25:00,74.7,65.4,30.00,North,0,0.0,0.0,73,0.00,,SCT120,0.00,VWS V14.01,2013-03-29 08:25:00,
2013-03-29 04:30:00,74.5,65.3,30.00,North,0,0.0,0.0,73,0.00,,SCT120,0.00,VWS V14.01,2013-03-29 08:30:00,
2013-03-29 04:35:00,74.3,65.1,30.00,North,0,0.0,0.0,73,0.00,,SCT120,0.00,VWS V14.01,2013-03-29 08:35:00,
2013-03-29 04:40:00,74.1,65.3,30.00,North,0,0.0,0.0,74,0.00,,SCT120,0.00,VWS V14.01,2013-03-29 08:40:00,
2013-03-29 04:45:00,74.1,65.3,30.00,North,0,0.0,0.0,74,0.00,,SCT120,0.00,VWS V14.01,2013-03-29 08:45:00,
2013-03-29 04:50:00,74.1,65.7,30.00,North,0,0.0,0.0,75,0.00,,SCT120,0.00,VWS V14.01,2013-03-29 08:50:00,
2013-03-29 04:55:00,74.1,65.7,30.00,North,0,0.0,0.0,75,0.00,,SCT120,0.00,VWS V14.01,2013-03-29 08:55:00,
2013-03-29 05:00:00,74.1,66.1,30.00,North,0,0.0,0.0,76,0.00,,SCT120,0.00,VWS V14.01,2013-03-29 09:00:00,
2013-03-29 05:05:00,73.9,65.5,30.00,North,0,0.0,0.0,75,0.00,,SCT120,0.00,VWS V14.01,2013-03-29 09:05:00,
2013-03-29 05:10:00,74.1,66.1,30.00,North,0,0.0,0.0,76,0.00,,SCT120,0.00,VWS V14.01,2013-03-29 09:10:00,
2013-03-29 05:15:00,74.1,66.1,30.00,North,0,0.0,0.0,76,0.00,,SCT120,0.00,VWS V14.01,2013-03-29 09:15:00,
2013-03-29 05:20:00,74.1,66.1,30.00,North,0,0.0,0.0,76,0.00,,SCT120,0.00,VWS V14.01,2013-03-29 09:20:00,
2013-03-29 05:25:00,73.9,65.9,30.00,North,0,0.0,0.0,76,0.00,,SCT120,0.00,VWS V14.01,2013-03-29 09:25:00,
2013-03-29 05:30:00,73.8,65.7,30.00,North,0,0.0,0.0,76,0.00,,SCT120,0.00,VWS V14.01,2013-03-29 09:30:00,
2013-03-29 05:35:00,73.6,65.6,30.00,North,0,0.0,0.0,76,0.00,,SCT120,0.00,VWS V14.01,2013-03-29 09:35:00,
2013-03-29 05:40:00,73.6,65.6,30.03,North,0,0.0,0.0,76,0.00,,SCT120,0.00,VWS V14.01,2013-03-29 09:40:00,
2013-03-29 05:45:00,73.6,65.6,30.03,North,0,0.0,0.0,76,0.00,,SCT120,0.00,VWS V14.01,2013-03-29 09:45:00,
2013-03-29 05:50:00,73.8,65.7,30.03,North,0,0.0,0.0,76,0.00,,SCT120,0.00,VWS V14.01,2013-03-29 09:50:00,
2013-03-29 05:55:00,73.9,66.3,30.03,North,0,0.0,0.0,77,0.00,,SCT120,0.00,VWS V14.01,2013-03-29 09:55:00,
2013-03-29 06:00:00,73.9,66.3,30.03,North,0,0.0,0.0,77,0.00,,SCT120,0.00,VWS V14.01,2013-03-29 10:00:00,
2013-03-29 06:05:00,73.8,65.7,30.03,North,0,0.0,0.0,76,0.00,,SCT120,0.00,VWS V14.01,2013-03-29 10:05:00,
2013-03-29 06:10:00,73.6,65.6,30.03,North,0,0.0,0.0,76,0.00,,SCT120,0.00,VWS V14.01,2013-03-29 10:10:00,
2013-03-29 06:15:00,73.4,65.4,30.03,North,0,0.0,0.0,76,0.00,,SCT120,0.00,VWS V14.01,2013-03-29 10:15:00,
2013-03-29 06:20:00,73.2,65.6,30.03,North,0,0.0,0.0,77,0.00,,SCT120,0.00,VWS V14.01,2013-03-29 10:20:00,
2013-03-29 06:25:00,73.2,65.6,30.03,North,0,0.0,0.0,77,0.00,,SCT120,0.00,VWS V14.01,2013-03-29 10:25:00,
2013-03-29 06:30:00,73.2,65.6,30.03,North,0,0.0,0.0,77,0.00,,SCT120,0.00,VWS V14.01,2013-03-29 10:30:00,
2013-03-29 06:35:00,73.0,65.8,30.03,North,0,0.0,0.0,78,0.00,,SCT120,0.00,VWS V14.01,2013-03-29 10:35:00,
2013-03-29 06:40:00,73.2,66.0,30.03,North,0,0.0,0.0,78,0.00,,SCT120,0.00,VWS V14.01,2013-03-29 10:40:00,
2013-03-29 06:45:00,73.4,66.1,30.03,North,0,0.0,0.0,78,0.00,,SCT120,0.00,VWS V14.01,2013-03-29 10:45:00,
2013-03-29 06:50:00,73.4,66.1,30.03,North,0,0.0,0.0,78,0.00,,SCT120,0.00,VWS V14.01,2013-03-29 10:50:00,
2013-03-29 06:55:00,73.6,66.3,30.03,North,0,0.0,0.0,78,0.00,,SCT120,0.00,VWS V14.01,2013-03-29 10:55:00,
2013-03-29 07:00:00,73.9,66.7,30.03,North,0,0.0,0.0,78,0.00,,SCT120,0.00,VWS V14.01,2013-03-29 11:00:00,
2013-03-29 07:05:00,74.3,67.0,30.03,North,0,0.0,0.0,78,0.00,,SCT120,0.00,VWS V14.01,2013-03-29 11:05:00,
2013-03-29 07:10:00,74.5,67.2,30.03,North,0,0.0,0.0,78,0.00,,SCT120,0.00,VWS V14.01,2013-03-29 11:10:00,
2013-03-29 07:15:00,74.7,67.3,30.03,North,0,0.0,0.0,78,0.00,,SCT120,0.00,VWS V14.01,2013-03-29 11:15:00,
2013-03-29 07:20:00,74.8,66.8,30.03,North,0,0.0,0.0,76,0.00,,SCT120,0.00,VWS V14.01,2013-03-29 11:20:00,
2013-03-29 07:25:00,75.2,66.7,30.03,North,0,0.0,0.0,75,0.00,,SCT120,0.00,VWS V14.01,2013-03-29 11:25:00,
2013-03-29 07:30:00,75.7,67.3,30.03,North,0,0.0,0.0,75,0.00,,SCT120,0.00,VWS V14.01,2013-03-29 11:30:00,
2013-03-29 07:35:00,76.1,66.4,30.03,North,0,0.0,0.0,72,0.00,,SCT120,0.00,VWS V14.01,2013-03-29 11:35:00,
2013-03-29 07:40:00,76.5,65.1,30.03,North,0,0.0,0.0,68,0.00,,SCT120,0.00,VWS V14.01,2013-03-29 11:40:00,
2013-03-29 07:45:00,77.4,65.1,30.03,North,0,0.0,0.0,66,0.00,,SCT120,0.00,VWS V14.01,2013-03-29 11:45:00,
2013-03-29 07:50:00,77.9,65.2,30.03,North,0,0.0,0.0,65,0.00,,SCT120,0.00,VWS V14.01,2013-03-29 11:50:00,
2013-03-29 07:55:00,78.3,63.7,30.03,North,0,0.0,0.0,61,0.00,,SCT120,0.00,VWS V14.01,2013-03-29 11:55:00,
2013-03-29 08:00:00,78.6,62.1,30.03,North,0,0.0,0.0,57,0.00,,SCT120,0.00,VWS V14.01,2013-03-29 12:00:00,
2013-03-29 08:05:00,79.3,61.8,30.03,North,0,0.0,0.0,55,0.00,,SCT120,0.00,VWS V14.01,2013-03-29 12:05:00,
2013-03-29 08:10:00,79.9,60.2,30.06,North,0,0.0,0.0,51,0.00,,SCT120,0.00,VWS V14.01,2013-03-29 12:10:00,
2013-03-29 08:15:00,80.4,60.7,30.06,North,0,0.0,0.0,51,0.00,,SCT120,0.00,VWS V14.01,2013-03-29 12:15:00,
2013-03-29 08:20:00,80.6,59.1,30.06,North,0,0.0,0.0,48,0.00,,SCT120,0.00,VWS V14.01,2013-03-29 12:20:00,
2013-03-29 08:25:00,80.6,57.9,30.06,North,0,0.0,0.0,46,0.00,,SCT120,0.00,VWS V14.01,2013-03-29 12:25:00,
2013-03-29 08:30:00,81.1,59.0,30.06,North,0,0.0,0.0,47,0.00,,SCT120,0.00,VWS V14.01,2013-03-29 12:30:00,
2013-03-29 08:35:00,81.9,58.5,30.06,North,0,0.0,0.0,45,0.00,,SCT120,0.00,VWS V14.01,2013-03-29 12:35:00,
2013-03-29 08:40:00,82.4,58.3,30.06,North,0,0.0,0.0,44,0.00,,SCT120,0.00,VWS V14.01,2013-03-29 12:40:00,
2013-03-29 08:45:00,82.9,57.5,30.06,North,0,0.0,0.0,42,0.00,,SCT120,0.00,VWS V14.01,2013-03-29 12:45:00,
2013-03-29 08:50:00,82.8,55.3,30.06,North,0,0.0,0.0,39,0.00,,SCT120,0.00,VWS V14.01,2013-03-29 12:50:00,
2013-03-29 08:55:00,82.0,56.7,30.06,North,0,0.0,0.0,42,0.00,,SCT120,0.00,VWS V14.01,2013-03-29 12:55:00,
2013-03-29 09:00:00,80.2,58.2,30.06,North,0,0.0,0.0,47,0.00,,SCT120,0.00,VWS V14.01,2013-03-29 13:00:00,
2013-03-29 09:05:00,79.0,62.5,30.06,North,0,0.0,0.0,57,0.00,,SCT120,0.00,VWS V14.01,2013-03-29 13:05:00,
2013-03-29 09:10:00,77.7,67.2,30.06,North,0,0.0,0.0,70,0.00,,SCT120,0.00,VWS V14.01,2013-03-29 13:10:00,
2013-03-29 09:15:00,76.8,68.7,30.06,North,0,0.0,0.0,76,0.04,,SCT120,0.04,VWS V14.01,2013-03-29 13:15:00,
2013-03-29 09:20:00,75.9,69.3,30.06,North,0,0.0,0.0,80,0.04,,SCT120,0.04,VWS V14.01,2013-03-29 13:20:00,
2013-03-29 09:25:00,75.4,69.9,30.09,North,0,0.0,0.0,83,0.04,,SCT120,0.04,VWS V14.01,2013-03-29 13:25:00,
2013-03-29 09:30:00,75.2,69.7,30.09,North,0,0.0,0.0,83,0.08,,SCT120,0.08,VWS V14.01,2013-03-29 13:30:00,
2013-03-29 09:35:00,75.0,70.2,30.09,North,0,0.0,0.0,85,0.12,,SCT120,0.12,VWS V14.01,2013-03-29 13:35:00,
2013-03-29 09:40:00,75.2,70.4,30.06,North,0,0.0,0.0,85,0.28,,SCT120,0.28,VWS V14.01,2013-03-29 13:40:00,
2013-03-29 09:45:00,74.8,70.4,30.06,North,0,0.0,0.0,86,0.35,,SCT120,0.35,VWS V14.01,2013-03-29 13:45:00,
2013-03-29 09:50:00,74.7,70.2,30.06,North,0,0.0,0.0,86,0.39,,SCT120,0.39,VWS V14.01,2013-03-29 13:50:00,
2013-03-29 09:55:00,74.8,70.4,30.09,North,0,0.0,0.0,86,0.43,,SCT120,0.43,VWS V14.01,2013-03-29 13:55:00,
2013-03-29 10:00:00,75.2,70.7,30.09,North,0,0.0,0.0,86,0.47,,SCT120,0.47,VWS V14.01,2013-03-29 14:00:00,
2013-03-29 10:05:00,75.0,70.9,30.09,North,0,0.0,0.0,87,0.51,,SCT120,0.51,VWS V14.01,2013-03-29 14:05:00,
2013-03-29 10:10:00,74.8,70.0,30.09,North,0,0.0,0.0,85,0.59,,SCT120,0.59,VWS V14.01,2013-03-29 14:10:00,
2013-03-29 10:15:00,74.8,70.0,30.09,North,0,0.0,0.0,85,0.59,,SCT120,0.59,VWS V14.01,2013-03-29 14:15:00,
2013-03-29 10:22:00,74.5,69.0,30.09,North,0,0.0,0.0,83,0.00,,SCT120,0.47,VWS V14.01,2013-03-29 14:22:00,
2013-03-29 10:27:00,74.5,69.0,30.09,North,0,0.0,0.0,83,0.67,,SCT120,0.67,VWS V14.01,2013-03-29 14:27:00,
2013-03-29 10:32:00,74.3,68.4,30.09,North,0,0.0,0.0,82,0.67,,SCT120,0.67,VWS V14.01,2013-03-29 14:32:00,
2013-03-29 10:38:00,73.9,68.1,30.09,North,0,0.0,0.0,82,0.71,,SCT120,0.71,VWS V14.01,2013-03-29 14:38:00,
2013-03-29 10:43:00,73.9,68.5,30.09,North,0,0.0,0.0,83,0.47,,SCT120,0.71,VWS V14.01,2013-03-29 14:43:00,
2013-03-29 10:48:00,73.9,68.5,30.09,North,0,0.0,0.0,83,0.51,,SCT120,0.75,VWS V14.01,2013-03-29 14:48:00,
2013-03-29 10:53:00,73.8,68.3,30.09,North,0,0.0,0.0,83,0.55,,SCT120,0.79,VWS V14.01,2013-03-29 14:53:00,
2013-03-29 10:58:00,73.8,68.3,30.09,North,0,0.0,0.0,83,0.59,,SCT120,0.83,VWS V14.01,2013-03-29 14:58:00,
2013-03-29 11:03:00,73.8,68.3,30.09,North,0,0.0,0.0,83,0.55,,SCT120,1.02,VWS V14.01,2013-03-29 15:03:00,
2013-03-29 11:08:00,73.9,68.1,30.09,North,0,0.0,0.0,82,0.67,,SCT120,1.14,VWS V14.01,2013-03-29 15:08:00,
2013-03-29 11:13:00,73.6,67.4,30.09,North,0,0.0,0.0,81,0.71,,SCT120,1.18,VWS V14.01,2013-03-29 15:13:00,
2013-03-29 11:18:00,73.8,67.9,30.09,North,0,0.0,0.0,82,0.79,,SCT120,1.26,VWS V14.01,2013-03-29 15:18:00,
2013-03-29 11:23:00,73.8,67.9,30.09,North,0,0.0,0.0,82,0.63,,SCT120,1.34,VWS V14.01,2013-03-29 15:23:00,
2013-03-29 11:28:00,73.9,68.5,30.09,North,0,0.0,0.0,83,0.71,,SCT120,1.42,VWS V14.01,2013-03-29 15:28:00,
2013-03-29 11:33:00,74.3,68.8,30.09,North,0,0.0,0.0,83,0.79,,SCT120,1.50,VWS V14.01,2013-03-29 15:33:00,
2013-03-29 11:38:00,74.1,68.6,30.09,North,0,0.0,0.0,83,0.83,,SCT120,1.54,VWS V14.01,2013-03-29 15:38:00,
2013-03-29 11:43:00,74.1,68.6,30.09,North,0,0.0,0.0,83,0.87,,SCT120,1.57,VWS V14.01,2013-03-29 15:43:00,
2013-03-29 11:48:00,74.1,68.6,30.09,North,0,0.0,0.0,83,0.94,,SCT120,1.65,VWS V14.01,2013-03-29 15:48:00,
2013-03-29 11:53:00,74.1,68.6,30.09,North,0,0.0,0.0,83,0.98,,SCT120,1.69,VWS V14.01,2013-03-29 15:53:00,
2013-03-29 11:58:00,74.3,67.7,30.09,North,0,0.0,0.0,80,1.02,,SCT120,1.73,VWS V14.01,2013-03-29 15:58:00,
2013-03-29 12:03:00,74.5,68.3,30.09,North,0,0.0,0.0,81,0.91,,SCT120,1.77,VWS V14.01,2013-03-29 16:03:00,
2013-03-29 12:08:00,74.7,68.4,30.09,North,0,0.0,0.0,81,0.98,,SCT120,1.85,VWS V14.01,2013-03-29 16:08:00,
2013-03-29 12:13:00,74.1,67.9,30.09,North,0,0.0,0.0,81,1.18,,SCT120,2.05,VWS V14.01,2013-03-29 16:13:00,
2013-03-29 12:18:00,74.3,68.4,30.09,North,0,0.0,0.0,82,1.30,,SCT120,2.17,VWS V14.01,2013-03-29 16:18:00,
2013-03-29 12:23:00,73.8,67.9,30.09,North,0,0.0,0.0,82,1.18,,SCT120,2.44,VWS V14.01,2013-03-29 16:23:00,
2013-03-29 12:28:00,73.4,68.3,30.09,North,0,0.0,0.0,84,1.38,,SCT120,2.64,VWS V14.01,2013-03-29 16:28:00,
2013-03-29 12:33:00,73.4,68.6,30.09,North,0,0.0,0.0,85,1.65,,SCT120,2.91,VWS V14.01,2013-03-29 16:33:00,
2013-03-29 12:38:00,73.6,69.1,30.09,North,0,0.0,0.0,86,1.73,,SCT120,2.99,VWS V14.01,2013-03-29 16:38:00,
2013-03-29 12:43:00,73.8,69.3,30.09,North,0,0.0,0.0,86,1.54,,SCT120,3.07,VWS V14.01,2013-03-29 16:43:00,
2013-03-29 12:48:00,73.8,69.3,30.09,North,0,0.0,0.0,86,1.54,,SCT120,3.07,VWS V14.01,2013-03-29 16:48:00,
2013-03-29 12:53:00,74.1,69.7,30.09,North,0,0.0,0.0,86,1.61,,SCT120,3.15,VWS V14.01,2013-03-29 16:53:00,
2013-03-29 12:58:00,73.9,69.8,30.09,North,0,0.0,0.0,87,1.61,,SCT120,3.15,VWS V14.01,2013-03-29 16:58:00,
2013-03-29 13:03:00,74.1,70.0,30.09,North,0,0.0,0.0,87,1.46,,SCT120,3.19,VWS V14.01,2013-03-29 17:03:00,
2013-03-29 13:08:00,73.6,69.1,30.09,North,0,0.0,0.0,86,1.50,,SCT120,3.23,VWS V14.01,2013-03-29 17:08:00,
2013-03-29 13:13:00,73.8,69.3,30.06,North,0,0.0,0.0,86,1.50,,SCT120,3.23,VWS V14.01,2013-03-29 17:13:00,
2013-03-29 13:18:00,73.9,69.5,30.06,North,0,0.0,0.0,86,1.50,,SCT120,3.23,VWS V14.01,2013-03-29 17:18:00,
2013-03-29 13:23:00,73.9,69.5,30.06,North,0,0.0,0.0,86,0.98,,SCT120,3.23,VWS V14.01,2013-03-29 17:23:00,
2013-03-29 13:28:00,73.6,68.8,30.06,North,0,0.0,0.0,85,1.02,,SCT120,3.27,VWS V14.01,2013-03-29 17:28:00,
2013-03-29 13:33:00,73.8,69.0,30.06,North,0,0.0,0.0,85,1.02,,SCT120,3.27,VWS V14.01,2013-03-29 17:33:00,
2013-03-29 13:38:00,73.9,69.5,30.06,North,0,0.0,0.0,86,1.06,,SCT120,3.31,VWS V14.01,2013-03-29 17:38:00,
2013-03-29 13:43:00,73.6,68.8,30.06,North,0,0.0,0.0,85,0.28,,SCT120,3.31,VWS V14.01,2013-03-29 17:43:00,
2013-03-29 13:48:00,73.9,69.5,30.06,North,0,0.0,0.0,86,0.28,,SCT120,3.31,VWS V14.01,2013-03-29 17:48:00,
2013-03-29 13:53:00,74.1,69.7,30.06,North,0,0.0,0.0,86,0.28,,SCT120,3.31,VWS V14.01,2013-03-29 17:53:00,
2013-03-29 13:58:00,74.1,69.3,30.06,North,0,0.0,0.0,85,0.28,,SCT120,3.31,VWS V14.01,2013-03-29 17:58:00,
2013-03-29 14:03:00,74.3,69.2,30.06,North,0,0.0,0.0,84,0.16,,SCT120,3.31,VWS V14.01,2013-03-29 18:03:00,
2013-03-29 14:08:00,74.3,68.4,30.06,North,0,0.0,0.0,82,0.16,,SCT120,3.31,VWS V14.01,2013-03-29 18:08:00,
2013-03-29 14:13:00,74.1,67.6,30.06,North,0,0.0,0.0,80,0.16,,SCT120,3.31,VWS V14.01,2013-03-29 18:13:00,
2013-03-29 14:18:00,73.9,67.4,30.06,North,0,0.0,0.0,80,0.16,,SCT120,3.31,VWS V14.01,2013-03-29 18:18:00,
2013-03-29 14:23:00,74.1,67.9,30.06,North,0,0.0,0.0,81,0.08,,SCT120,3.31,VWS V14.01,2013-03-29 18:23:00,
2013-03-29 14:28:00,73.9,67.4,30.06,North,0,0.0,0.0,80,0.08,,SCT120,3.31,VWS V14.01,2013-03-29 18:28:00,
2013-03-29 14:33:00,73.8,66.5,30.06,North,0,0.0,0.0,78,0.08,,SCT120,3.31,VWS V14.01,2013-03-29 18:33:00,
2013-03-29 14:38:00,74.1,66.5,30.06,North,0,0.0,0.0,77,0.08,,SCT120,3.31,VWS V14.01,2013-03-29 18:38:00,
2013-03-29 14:43:00,74.3,67.0,30.06,North,0,0.0,0.0,78,0.00,,SCT120,3.31,VWS V14.01,2013-03-29 18:43:00,
2013-03-29 14:48:00,74.3,66.2,30.06,North,0,0.0,0.0,76,0.00,,SCT120,3.31,VWS V14.01,2013-03-29 18:48:00,
2013-03-29 14:53:00,73.9,65.5,30.06,North,0,0.0,0.0,75,0.00,,SCT120,3.31,VWS V14.01,2013-03-29 18:53:00,
2013-03-29 14:58:00,74.1,65.3,30.06,North,0,0.0,0.0,74,0.00,,SCT120,3.31,VWS V14.01,2013-03-29 18:58:00,
2013-03-29 15:03:00,74.1,65.3,30.06,North,0,0.0,0.0,74,0.00,,SCT120,3.31,VWS V14.01,2013-03-29 19:03:00,
2013-03-29 15:08:00,74.3,65.9,30.06,North,0,0.0,0.0,75,0.00,,SCT120,3.31,VWS V14.01,2013-03-29 19:08:00,
2013-03-29 15:13:00,74.3,65.9,30.06,North,0,0.0,0.0,75,0.00,,SCT120,3.31,VWS V14.01,2013-03-29 19:13:00,
2013-03-29 15:18:00,74.3,65.1,30.06,North,0,0.0,0.0,73,0.00,,SCT120,3.31,VWS V14.01,2013-03-29 19:18:00,
2013-03-29 15:23:00,74.1,65.3,30.06,North,0,0.0,0.0,74,0.00,,SCT120,3.31,VWS V14.01,2013-03-29 19:23:00,
2013-03-29 15:28:00,74.1,65.7,30.06,North,0,0.0,0.0,75,0.00,,SCT120,3.31,VWS V14.01,2013-03-29 19:28:00,
2013-03-29 15:33:00,74.3,66.2,30.06,North,0,0.0,0.0,76,0.00,,SCT120,3.31,VWS V14.01,2013-03-29 19:33:00,
2013-03-29 15:38:00,74.3,66.6,30.06,North,0,0.0,0.0,77,0.04,,SCT120,3.35,VWS V14.01,2013-03-29 19:38:00,
2013-03-29 15:43:00,74.5,67.2,30.06,North,0,0.0,0.0,78,0.04,,SCT120,3.35,VWS V14.01,2013-03-29 19:43:00,
2013-03-29 15:48:00,73.8,64.2,30.06,North,0,0.0,0.0,72,0.04,,SCT120,3.35,VWS V14.01,2013-03-29 19:48:00,
2013-03-29 15:53:00,73.8,64.2,30.06,North,0,0.0,0.0,72,0.04,,SCT120,3.35,VWS V14.01,2013-03-29 19:53:00,
2013-03-29 15:58:00,73.9,64.3,30.03,North,0,0.0,0.0,72,0.04,,SCT120,3.35,VWS V14.01,2013-03-29 19:58:00,
2013-03-29 16:03:00,73.9,64.8,30.03,North,0,0.0,0.0,73,0.04,,SCT120,3.35,VWS V14.01,2013-03-29 20:03:00,
2013-03-29 16:08:00,74.1,64.1,30.03,North,0,0.0,0.0,71,0.04,,SCT120,3.35,VWS V14.01,2013-03-29 20:08:00,
2013-03-29 16:13:00,74.3,64.3,30.03,North,0,0.0,0.0,71,0.04,,SCT120,3.35,VWS V14.01,2013-03-29 20:13:00,
2013-03-29 16:18:00,74.5,64.9,30.03,North,0,0.0,0.0,72,0.04,,SCT120,3.35,VWS V14.01,2013-03-29 20:18:00,
2013-03-29 16:23:00,74.1,63.7,30.03,North,0,0.0,0.0,70,0.04,,SCT120,3.35,VWS V14.01,2013-03-29 20:23:00,
2013-03-29 16:28:00,73.9,63.5,30.03,North,0,0.0,0.0,70,0.04,,SCT120,3.35,VWS V14.01,2013-03-29 20:28:00,
2013-03-29 16:33:00,73.8,64.6,30.03,North,0,0.0,0.0,73,0.04,,SCT120,3.35,VWS V14.01,2013-03-29 20:33:00,
2013-03-29 16:38:00,73.6,64.8,30.06,North,0,0.0,0.0,74,0.04,,SCT120,3.35,VWS V14.01,2013-03-29 20:38:00,
2013-03-29 16:43:00,73.4,65.4,30.06,North,0,0.0,0.0,76,0.04,,SCT120,3.39,VWS V14.01,2013-03-29 20:43:00,
2013-03-29 16:48:00,73.4,66.1,30.06,North,0,0.0,0.0,78,0.04,,SCT120,3.39,VWS V14.01,2013-03-29 20:48:00,
2013-03-29 16:53:00,73.4,66.1,30.06,North,0,0.0,0.0,78,0.08,,SCT120,3.43,VWS V14.01,2013-03-29 20:53:00,
2013-03-29 16:58:00,73.4,66.5,30.06,North,0,0.0,0.0,79,0.08,,SCT120,3.43,VWS V14.01,2013-03-29 20:58:00,
2013-03-29 17:03:00,73.2,66.7,30.06,North,0,0.0,0.0,80,0.12,,SCT120,3.46,VWS V14.01,2013-03-29 21:03:00,
2013-03-29 17:08:00,73.0,66.9,30.06,North,0,0.0,0.0,81,0.16,,SCT120,3.50,VWS V14.01,2013-03-29 21:08:00,
2013-03-29 17:13:00,73.0,66.9,30.06,North,0,0.0,0.0,81,0.16,,SCT120,3.50,VWS V14.01,2013-03-29 21:13:00,
2013-03-29 17:18:00,73.0,66.9,30.06,North,0,0.0,0.0,81,0.16,,SCT120,3.50,VWS V14.01,2013-03-29 21:18:00,
2013-03-29 17:23:00,73.0,66.5,30.06,North,0,0.0,0.0,80,0.16,,SCT120,3.50,VWS V14.01,2013-03-29 21:23:00,
2013-03-29 17:28:00,72.9,65.6,30.06,North,0,0.0,0.0,78,0.16,,SCT120,3.50,VWS V14.01,2013-03-29 21:28:00,
2013-03-29 17:33:00,73.0,65.0,30.06,North,0,0.0,0.0,76,0.16,,SCT120,3.50,VWS V14.01,2013-03-29 21:33:00,
2013-03-29 17:38:00,73.0,64.7,30.06,North,0,0.0,0.0,75,0.16,,SCT120,3.50,VWS V14.01,2013-03-29 21:38:00,
2013-03-29 17:43:00,73.2,64.1,30.06,North,0,0.0,0.0,73,0.16,,SCT120,3.50,VWS V14.01,2013-03-29 21:43:00,
2013-03-29 17:48:00,73.0,63.9,30.06,North,0,0.0,0.0,73,0.16,,SCT120,3.50,VWS V14.01,2013-03-29 21:48:00,
2013-03-29 17:53:00,73.2,64.4,30.06,North,0,0.0,0.0,74,0.16,,SCT120,3.50,VWS V14.01,2013-03-29 21:53:00,
2013-03-29 17:58:00,73.2,64.1,30.06,North,0,0.0,0.0,73,0.16,,SCT120,3.50,VWS V14.01,2013-03-29 21:58:00,
2013-03-29 18:03:00,73.0,64.3,30.06,North,0,0.0,0.0,74,0.08,,SCT120,3.50,VWS V14.01,2013-03-29 22:03:00,
2013-03-29 18:08:00,73.2,64.1,30.06,North,0,0.0,0.0,73,0.08,,SCT120,3.50,VWS V14.01,2013-03-29 22:08:00,
2013-03-29 18:13:00,73.0,63.1,30.06,North,0,0.0,0.0,71,0.08,,SCT120,3.50,VWS V14.01,2013-03-29 22:13:00,
2013-03-29 18:18:00,73.0,63.5,30.06,North,0,0.0,0.0,72,0.08,,SCT120,3.50,VWS V14.01,2013-03-29 22:18:00,
2013-03-29 18:23:00,73.0,63.1,30.06,North,0,0.0,0.0,71,0.00,,SCT120,3.50,VWS V14.01,2013-03-29 22:23:00,
2013-03-29 18:28:00,73.0,63.1,30.06,North,0,0.0,0.0,71,0.00,,SCT120,3.50,VWS V14.01,2013-03-29 22:28:00,
2013-03-29 18:33:00,73.0,63.1,30.06,North,0,0.0,0.0,71,0.00,,SCT120,3.50,VWS V14.01,2013-03-29 22:33:00,
2013-03-29 18:38:00,72.9,62.5,30.06,North,0,0.0,0.0,70,0.00,,SCT120,3.50,VWS V14.01,2013-03-29 22:38:00,
2013-03-29 18:43:00,73.0,63.1,30.06,North,0,0.0,0.0,71,0.00,,SCT120,3.50,VWS V14.01,2013-03-29 22:43:00,
2013-03-29 18:48:00,73.0,63.1,30.06,North,0,0.0,0.0,71,0.00,,SCT120,3.50,VWS V14.01,2013-03-29 22:48:00,
2013-03-29 18:53:00,73.0,63.1,30.06,North,0,0.0,0.0,71,0.00,,SCT120,3.50,VWS V14.01,2013-03-29 22:53:00,
2013-03-29 18:58:00,72.9,63.3,30.06,North,0,0.0,0.0,72,0.00,,SCT120,3.50,VWS V14.01,2013-03-29 22:58:00,
2013-03-29 19:03:00,72.7,63.1,30.06,North,0,0.0,0.0,72,0.00,,SCT120,3.50,VWS V14.01,2013-03-29 23:03:00,
2013-03-29 19:08:00,72.7,63.5,30.09,North,0,0.0,0.0,73,0.00,,SCT120,3.50,VWS V14.01,2013-03-29 23:08:00,
2013-03-29 19:13:00,72.7,63.5,30.09,North,0,0.0,0.0,73,0.00,,SCT120,3.50,VWS V14.01,2013-03-29 23:13:00,
2013-03-29 19:18:00,72.5,63.4,30.09,North,0,0.0,0.0,73,0.00,,SCT120,3.50,VWS V14.01,2013-03-29 23:18:00,
2013-03-29 19:23:00,72.7,63.9,30.09,North,0,0.0,0.0,74,0.00,,SCT120,3.50,VWS V14.01,2013-03-29 23:23:00,
2013-03-29 19:29:00,72.5,63.8,30.09,North,0,0.0,0.0,74,0.00,,SCT120,3.50,VWS V14.01,2013-03-29 23:29:00,
2013-03-29 19:34:00,72.5,63.4,30.09,North,0,0.0,0.0,73,0.00,,SCT120,3.50,VWS V14.01,2013-03-29 23:34:00,
2013-03-29 19:39:00,72.5,63.8,30.09,North,0,0.0,0.0,74,0.00,,SCT120,3.50,VWS V14.01,2013-03-29 23:39:00,
2013-03-29 19:44:00,72.5,63.4,30.09,North,0,0.0,0.0,73,0.00,,SCT120,3.50,VWS V14.01,2013-03-29 23:44:00,
2013-03-29 19:49:00,72.3,63.6,30.09,North,0,0.0,0.0,74,0.00,,SCT120,3.50,VWS V14.01,2013-03-29 23:49:00,
2013-03-29 19:53:00,72.3,64.0,30.09,North,0,0.0,0.0,75,0.04,,SCT120,3.54,VWS V14.01,2013-03-29 23:53:00,
2013-03-29 19:58:00,72.5,64.1,30.09,North,0,0.0,0.0,75,0.04,,SCT120,3.54,VWS V14.01,2013-03-29 23:58:00,
2013-03-29 20:04:00,72.3,64.0,30.09,North,0,0.0,0.0,75,0.04,,SCT120,3.54,VWS V14.01,2013-03-30 00:04:00,
2013-03-29 20:09:00,72.3,64.0,30.09,North,0,0.0,0.0,75,0.04,,SCT120,3.54,VWS V14.01,2013-03-30 00:09:00,
2013-03-29 20:14:00,72.1,63.4,30.09,North,0,0.0,0.0,74,0.04,,SCT120,3.54,VWS V14.01,2013-03-30 00:14:00,
2013-03-29 20:19:00,72.1,63.4,30.09,North,0,0.0,0.0,74,0.04,,SCT120,3.54,VWS V14.01,2013-03-30 00:19:00,
2013-03-29 20:24:00,72.1,63.0,30.09,North,0,0.0,0.0,73,0.04,,SCT120,3.54,VWS V14.01,2013-03-30 00:24:00,
2013-03-29 20:29:00,72.3,63.6,30.09,North,0,0.0,0.0,74,0.04,,SCT120,3.54,VWS V14.01,2013-03-30 00:29:00,
2013-03-29 20:34:00,72.1,63.4,30.09,North,0,0.0,0.0,74,0.04,,SCT120,3.54,VWS V14.01,2013-03-30 00:34:00,
2013-03-29 20:39:00,72.1,62.6,30.12,North,0,0.0,0.0,72,0.04,,SCT120,3.54,VWS V14.01,2013-03-30 00:39:00,
2013-03-29 20:44:00,72.1,62.2,30.12,North,0,0.0,0.0,71,0.04,,SCT120,3.54,VWS V14.01,2013-03-30 00:44:00,
2013-03-29 20:49:00,72.3,62.8,30.12,North,0,0.0,0.0,72,0.04,,SCT120,3.54,VWS V14.01,2013-03-30 00:49:00,
2013-03-29 20:54:00,72.1,62.2,30.12,North,0,0.0,0.0,71,0.04,,SCT120,3.54,VWS V14.01,2013-03-30 00:54:00,
2013-03-29 20:59:00,72.3,62.4,30.12,North,0,0.0,0.0,71,0.04,,SCT120,3.54,VWS V14.01,2013-03-30 00:59:00,
2013-03-29 21:04:00,72.3,62.0,30.12,North,0,0.0,0.0,70,0.00,,SCT120,3.54,VWS V14.01,2013-03-30 01:04:00,
2013-03-29 21:09:00,72.3,62.0,30.12,North,0,0.0,0.0,70,0.00,,SCT120,3.54,VWS V14.01,2013-03-30 01:09:00,
2013-03-29 21:14:00,72.3,61.6,30.12,North,0,0.0,0.0,69,0.00,,SCT120,3.54,VWS V14.01,2013-03-30 01:14:00,
2013-03-29 21:19:00,72.5,61.8,30.12,North,0,0.0,0.0,69,0.00,,SCT120,3.54,VWS V14.01,2013-03-30 01:19:00,
2013-03-29 21:24:00,72.5,61.3,30.12,North,0,0.0,0.0,68,0.00,,SCT120,3.54,VWS V14.01,2013-03-30 01:24:00,
2013-03-29 21:29:00,72.5,61.3,30.12,North,0,0.0,0.0,68,0.00,,SCT120,3.54,VWS V14.01,2013-03-30 01:29:00,
2013-03-29 21:34:00,72.5,60.5,30.12,North,0,0.0,0.0,66,0.00,,SCT120,3.54,VWS V14.01,2013-03-30 01:34:00,
2013-03-29 21:39:00,72.5,60.9,30.12,North,0,0.0,0.0,67,0.00,,SCT120,3.54,VWS V14.01,2013-03-30 01:39:00,
2013-03-29 21:44:00,72.5,61.3,30.12,North,0,0.0,0.0,68,0.00,,SCT120,3.54,VWS V14.01,2013-03-30 01:44:00,
2013-03-29 21:49:00,72.7,61.9,30.12,North,0,0.0,0.0,69,0.00,,SCT120,3.54,VWS V14.01,2013-03-30 01:49:00,
2013-03-29 21:54:00,72.7,62.3,30.12,North,0,0.0,0.0,70,0.00,,SCT120,3.54,VWS V14.01,2013-03-30 01:54:00,
2013-03-29 21:59:00,72.7,62.7,30.12,North,0,0.0,0.0,71,0.00,,SCT120,3.54,VWS V14.01,2013-03-30 01:59:00,
2013-03-29 22:04:00,72.5,63.4,30.12,North,0,0.0,0.0,73,0.00,,SCT120,3.54,VWS V14.01,2013-03-30 02:04:00,
2013-03-29 22:09:00,72.5,63.8,30.12,North,0,0.0,0.0,74,0.00,,SCT120,3.54,VWS V14.01,2013-03-30 02:09:00,
2013-03-29 22:14:00,72.5,64.1,30.12,North,0,0.0,0.0,75,0.00,,SCT120,3.54,VWS V14.01,2013-03-30 02:14:00,
2013-03-29 22:19:00,72.3,64.3,30.12,North,0,0.0,0.0,76,0.00,,SCT120,3.54,VWS V14.01,2013-03-30 02:19:00,
2013-03-29 22:24:00,72.1,64.5,30.15,North,0,0.0,0.0,77,0.00,,SCT120,3.54,VWS V14.01,2013-03-30 02:24:00,
2013-03-29 22:29:00,72.0,64.0,30.15,North,0,0.0,0.0,76,0.00,,SCT120,3.54,VWS V14.01,2013-03-30 02:29:00,
2013-03-29 22:34:00,72.0,64.0,30.15,North,0,0.0,0.0,76,0.00,,SCT120,3.54,VWS V14.01,2013-03-30 02:34:00,
2013-03-29 22:39:00,71.8,63.1,30.15,North,0,0.0,0.0,74,0.00,,SCT120,3.54,VWS V14.01,2013-03-30 02:39:00,
2013-03-29 22:44:00,72.0,62.0,30.15,North,0,0.0,0.0,71,0.00,,SCT120,3.54,VWS V14.01,2013-03-30 02:44:00,
2013-03-29 22:49:00,72.0,62.0,30.15,North,0,0.0,0.0,71,0.00,,SCT120,3.54,VWS V14.01,2013-03-30 02:49:00,
2013-03-29 22:54:00,72.0,61.2,30.15,North,0,0.0,0.0,69,0.00,,SCT120,3.54,VWS V14.01,2013-03-30 02:54:00,
2013-03-29 22:59:00,72.1,60.6,30.15,North,0,0.0,0.0,67,0.00,,SCT120,3.54,VWS V14.01,2013-03-30 02:59:00,
2013-03-29 23:04:00,72.3,60.8,30.15,North,0,0.0,0.0,67,0.00,,SCT120,3.54,VWS V14.01,2013-03-30 03:04:00,
2013-03-29 23:09:00,72.3,60.8,30.15,North,0,0.0,0.0,67,0.00,,SCT120,3.54,VWS V14.01,2013-03-30 03:09:00,
2013-03-29 23:14:00,72.3,59.5,30.15,North,0,0.0,0.0,64,0.00,,SCT120,3.54,VWS V14.01,2013-03-30 03:14:00,
2013-03-29 23:19:00,72.5,59.6,30.15,North,0,0.0,0.0,64,0.00,,SCT120,3.54,VWS V14.01,2013-03-30 03:19:00,
2013-03-29 23:24:00,72.7,59.8,30.15,North,0,0.0,0.0,64,0.00,,SCT120,3.54,VWS V14.01,2013-03-30 03:24:00,
2013-03-29 23:29:00,72.5,59.6,30.15,North,0,0.0,0.0,64,0.00,,SCT120,3.54,VWS V14.01,2013-03-30 03:29:00,
2013-03-29 23:34:00,72.7,59.4,30.15,North,0,0.0,0.0,63,0.00,,SCT120,3.54,VWS V14.01,2013-03-30 03:34:00,
2013-03-29 23:39:00,72.7,59.4,30.12,North,0,0.0,0.0,63,0.00,,SCT120,3.54,VWS V14.01,2013-03-30 03:39:00,
2013-03-29 23:44:00,72.7,58.9,30.12,North,0,0.0,0.0,62,0.00,,SCT120,3.54,VWS V14.01,2013-03-30 03:44:00,
2013-03-29 23:49:00,72.7,58.5,30.12,North,0,0.0,0.0,61,0.00,,SCT120,3.54,VWS V14.01,2013-03-30 03:49:00,
2013-03-29 23:54:00,72.7,58.9,30.12,North,0,0.0,0.0,62,0.00,,SCT120,3.54,VWS V14.01,2013-03-30 03:54:00,
2013-03-29 23:59:00,72.7,58.9,30.12,North,0,0.0,0.0,62,0.00,,SCT120,0.00,VWS V14.01,2013-03-30 03:59:00,